Terminal Aerodrome Forecast
Issued by NWS

Home | Current Version | Previous Version | Text Only | Print | Product List | Glossary On
Versions: 1 2 3 4 5 6 7 8 9 10 11 12 13 14 15 16 17 18 19 20 21 22 23 24 25 26
000
FTUS43 KILX 251238 AAA
TAFBMI
TAF AMD
KBMI 251238Z 2513/2612 34014KT P6SM OVC005
     FM251500 33012KT P6SM OVC010
     FM251700 32011KT P6SM BKN020
     FM251800 32009KT P6SM BKN035
     FM252000 32008KT P6SM SCT040
     FM260100 VRB06KT P6SM BKN250=

USA.gov is the U.S. government's official web portal to all federal, state and local government web resources and services.